FEBRUARI 16, 2019

 

METAR SMJP 161900Z 08012KT 9999 SCT035 31/21 Q1011 NOSIG=

METAR SMZO 161900Z 08010KT 9999 SCT030 31/18 Q1012 NOSIG=

METAR SMNI 161900Z NIL=

METAR SMST 161900Z NIL=